sensor_id;sensor_type;location;lat;lon;timestamp;temperature;humidity
64918;HTU21D;52176;44.858;38.372;2023-02-28T00:02:18;13.96;49.63
64918;HTU21D;52176;44.858;38.372;2023-02-28T00:04:44;13.92;49.69
64918;HTU21D;52176;44.858;38.372;2023-02-28T00:07:09;13.88;49.81
64918;HTU21D;52176;44.858;38.372;2023-02-28T00:09:35;13.83;49.91
64918;HTU21D;52176;44.858;38.372;2023-02-28T00:12:01;13.78;49.99
64918;HTU21D;52176;44.858;38.372;2023-02-28T00:14:35;13.74;50.13
64918;HTU21D;52176;44.858;38.372;2023-02-28T00:17:01;13.70;50.22
64918;HTU21D;52176;44.858;38.372;2023-02-28T00:19:27;13.65;50.32
64918;HTU21D;52176;44.858;38.372;2023-02-28T00:21:53;13.61;50.43
64918;HTU21D;52176;44.858;38.372;2023-02-28T00:24:19;13.56;50.53
64918;HTU21D;52176;44.858;38.372;2023-02-28T00:26:44;13.51;50.68
64918;HTU21D;52176;44.858;38.372;2023-02-28T00:29:10;13.44;50.90
64918;HTU21D;52176;44.858;38.372;2023-02-28T00:31:36;13.34;51.12
64918;HTU21D;52176;44.858;38.372;2023-02-28T00:34:03;13.27;51.20
64918;HTU21D;52176;44.858;38.372;2023-02-28T00:36:30;13.24;51.24
64918;HTU21D;52176;44.858;38.372;2023-02-28T00:38:56;13.20;51.29
64918;HTU21D;52176;44.858;38.372;2023-02-28T00:41:22;13.16;51.30
64918;HTU21D;52176;44.858;38.372;2023-02-28T00:43:47;13.15;51.30
64918;HTU21D;52176;44.858;38.372;2023-02-28T00:46:13;13.14;51.29
64918;HTU21D;52176;44.858;38.372;2023-02-28T00:48:39;13.10;51.30
64918;HTU21D;52176;44.858;38.372;2023-02-28T00:51:05;13.09;51.28
64918;HTU21D;52176;44.858;38.372;2023-02-28T00:53:31;13.08;51.28
64918;HTU21D;52176;44.858;38.372;2023-02-28T00:55:58;13.10;51.27
64918;HTU21D;52176;44.858;38.372;2023-02-28T00:58:25;13.11;51.26
64918;HTU21D;52176;44.858;38.372;2023-02-28T01:00:51;13.16;51.21
64918;HTU21D;52176;44.858;38.372;2023-02-28T01:03:18;13.17;51.13
64918;HTU21D;52176;44.858;38.372;2023-02-28T01:05:44;13.18;51.02
64918;HTU21D;52176;44.858;38.372;2023-02-28T01:08:10;13.19;51.03
64918;HTU21D;52176;44.858;38.372;2023-02-28T01:10:36;13.19;51.00
64918;HTU21D;52176;44.858;38.372;2023-02-28T01:13:03;13.19;50.95
64918;HTU21D;52176;44.858;38.372;2023-02-28T01:15:29;13.17;50.93
64918;HTU21D;52176;44.858;38.372;2023-02-28T01:17:57;13.12;50.95
64918;HTU21D;52176;44.858;38.372;2023-02-28T01:20:23;13.04;51.12
64918;HTU21D;52176;44.858;38.372;2023-02-28T01:22:49;12.91;51.37
64918;HTU21D;52176;44.858;38.372;2023-02-28T01:25:15;12.76;51.62
64918;HTU21D;52176;44.858;38.372;2023-02-28T01:27:41;12.60;51.90
64918;HTU21D;52176;44.858;38.372;2023-02-28T01:30:07;12.49;52.14
64918;HTU21D;52176;44.858;38.372;2023-02-28T01:32:34;12.41;52.30
64918;HTU21D;52176;44.858;38.372;2023-02-28T01:35:00;12.34;52.45
64918;HTU21D;52176;44.858;38.372;2023-02-28T01:37:26;12.31;52.59
64918;HTU21D;52176;44.858;38.372;2023-02-28T01:39:52;12.26;52.75
64918;HTU21D;52176;44.858;38.372;2023-02-28T01:42:19;12.19;52.90
64918;HTU21D;52176;44.858;38.372;2023-02-28T01:47:29;12.03;53.08
64918;HTU21D;52176;44.858;38.372;2023-02-28T01:49:56;11.96;53.29
64918;HTU21D;52176;44.858;38.372;2023-02-28T01:52:22;11.90;53.43
64918;HTU21D;52176;44.858;38.372;2023-02-28T01:54:53;11.83;53.63
64918;HTU21D;52176;44.858;38.372;2023-02-28T01:57:21;11.74;53.74
64918;HTU21D;52176;44.858;38.372;2023-02-28T01:59:49;11.66;53.88
64918;HTU21D;52176;44.858;38.372;2023-02-28T02:02:17;11.59;54.09
64918;HTU21D;52176;44.858;38.372;2023-02-28T02:04:50;11.54;54.24
64918;HTU21D;52176;44.858;38.372;2023-02-28T02:07:18;11.49;54.36
64918;HTU21D;52176;44.858;38.372;2023-02-28T02:09:44;11.45;54.42
64918;HTU21D;52176;44.858;38.372;2023-02-28T02:12:34;11.41;54.47
64918;HTU21D;52176;44.858;38.372;2023-02-28T02:15:09;11.36;54.43
64918;HTU21D;52176;44.858;38.372;2023-02-28T02:17:39;11.29;54.50
64918;HTU21D;52176;44.858;38.372;2023-02-28T02:27:56;11.10;54.78
64918;HTU21D;52176;44.858;38.372;2023-02-28T02:36:14;10.98;55.10
64918;HTU21D;52176;44.858;38.372;2023-02-28T02:39:05;10.96;55.25
64918;HTU21D;52176;44.858;38.372;2023-02-28T02:41:40;10.94;55.33
64918;HTU21D;52176;44.858;38.372;2023-02-28T02:44:14;10.93;55.45
64918;HTU21D;52176;44.858;38.372;2023-02-28T02:46:43;10.90;55.48
64918;HTU21D;52176;44.858;38.372;2023-02-28T02:49:15;10.92;55.58
64918;HTU21D;52176;44.858;38.372;2023-02-28T02:51:43;10.94;55.61
64918;HTU21D;52176;44.858;38.372;2023-02-28T02:56:44;11.02;55.68
64918;HTU21D;52176;44.858;38.372;2023-02-28T02:59:13;11.05;55.72
64918;HTU21D;52176;44.858;38.372;2023-02-28T03:01:51;11.11;55.60
64918;HTU21D;52176;44.858;38.372;2023-02-28T03:04:19;11.11;55.60
64918;HTU21D;52176;44.858;38.372;2023-02-28T03:06:46;11.12;55.58
64918;HTU21D;52176;44.858;38.372;2023-02-28T03:09:12;11.16;55.42
64918;HTU21D;52176;44.858;38.372;2023-02-28T03:11:38;11.23;55.41
64918;HTU21D;52176;44.858;38.372;2023-02-28T03:16:58;11.33;55.06
64918;HTU21D;52176;44.858;38.372;2023-02-28T03:22:04;11.38;54.90
64918;HTU21D;52176;44.858;38.372;2023-02-28T03:24:37;11.42;54.87
64918;HTU21D;52176;44.858;38.372;2023-02-28T03:27:08;11.41;54.87
64918;HTU21D;52176;44.858;38.372;2023-02-28T03:29:39;11.39;54.95
64918;HTU21D;52176;44.858;38.372;2023-02-28T03:32:19;11.40;54.92
64918;HTU21D;52176;44.858;38.372;2023-02-28T03:35:09;11.39;54.97
64918;HTU21D;52176;44.858;38.372;2023-02-28T03:37:33;11.36;55.04
64918;HTU21D;52176;44.858;38.372;2023-02-28T03:40:11;11.31;55.14
64918;HTU21D;52176;44.858;38.372;2023-02-28T03:42:39;11.25;55.26
64918;HTU21D;52176;44.858;38.372;2023-02-28T03:45:11;11.20;55.29
64918;HTU21D;52176;44.858;38.372;2023-02-28T03:47:39;11.16;55.29
64918;HTU21D;52176;44.858;38.372;2023-02-28T03:52:36;11.13;55.31
64918;HTU21D;52176;44.858;38.372;2023-02-28T03:55:06;11.08;55.39
64918;HTU21D;52176;44.858;38.372;2023-02-28T03:57:48;11.03;55.41
64918;HTU21D;52176;44.858;38.372;2023-02-28T04:00:38;11.00;55.49
64918;HTU21D;52176;44.858;38.372;2023-02-28T04:03:02;10.98;55.45
64918;HTU21D;52176;44.858;38.372;2023-02-28T04:05:28;11.02;55.43
64918;HTU21D;52176;44.858;38.372;2023-02-28T04:08:03;11.04;55.37
64918;HTU21D;52176;44.858;38.372;2023-02-28T04:10:29;11.07;55.30
64918;HTU21D;52176;44.858;38.372;2023-02-28T04:12:55;11.09;55.26
64918;HTU21D;52176;44.858;38.372;2023-02-28T04:15:20;11.07;55.29
64918;HTU21D;52176;44.858;38.372;2023-02-28T04:17:48;11.04;55.31
64918;HTU21D;52176;44.858;38.372;2023-02-28T04:20:14;11.02;55.39
64918;HTU21D;52176;44.858;38.372;2023-02-28T04:22:39;11.00;55.47
64918;HTU21D;52176;44.858;38.372;2023-02-28T04:25:05;11.01;55.45
64918;HTU21D;52176;44.858;38.372;2023-02-28T04:27:31;11.03;55.49
64918;HTU21D;52176;44.858;38.372;2023-02-28T04:29:57;11.03;55.55
64918;HTU21D;52176;44.858;38.372;2023-02-28T04:32:23;11.08;55.52
64918;HTU21D;52176;44.858;38.372;2023-02-28T04:34:48;11.12;55.46
64918;HTU21D;52176;44.858;38.372;2023-02-28T04:37:14;11.17;55.38
64918;HTU21D;52176;44.858;38.372;2023-02-28T04:39:40;11.23;55.35
64918;HTU21D;52176;44.858;38.372;2023-02-28T04:42:06;11.24;55.29
64918;HTU21D;52176;44.858;38.372;2023-02-28T04:44:32;11.26;55.31
64918;HTU21D;52176;44.858;38.372;2023-02-28T04:46:58;11.30;55.30
64918;HTU21D;52176;44.858;38.372;2023-02-28T04:49:24;11.34;55.20
64918;HTU21D;52176;44.858;38.372;2023-02-28T04:51:49;11.38;55.19
64918;HTU21D;52176;44.858;38.372;2023-02-28T04:54:15;11.39;55.25
64918;HTU21D;52176;44.858;38.372;2023-02-28T04:56:41;11.43;55.26
64918;HTU21D;52176;44.858;38.372;2023-02-28T04:59:07;11.46;55.40
64918;HTU21D;52176;44.858;38.372;2023-02-28T05:01:33;11.55;55.38
64918;HTU21D;52176;44.858;38.372;2023-02-28T05:04:01;11.62;55.18
64918;HTU21D;52176;44.858;38.372;2023-02-28T05:06:27;11.74;55.03
64918;HTU21D;52176;44.858;38.372;2023-02-28T05:08:54;11.86;54.84
64918;HTU21D;52176;44.858;38.372;2023-02-28T05:11:21;12.00;54.73
64918;HTU21D;52176;44.858;38.372;2023-02-28T05:13:47;12.11;54.62
64918;HTU21D;52176;44.858;38.372;2023-02-28T05:16:14;12.19;54.55
64918;HTU21D;52176;44.858;38.372;2023-02-28T05:18:40;12.29;54.52
64918;HTU21D;52176;44.858;38.372;2023-02-28T05:21:06;12.40;54.56
64918;HTU21D;52176;44.858;38.372;2023-02-28T05:23:43;12.52;54.56
64918;HTU21D;52176;44.858;38.372;2023-02-28T05:26:09;12.65;54.36
64918;HTU21D;52176;44.858;38.372;2023-02-28T05:28:34;12.80;54.12
64918;HTU21D;52176;44.858;38.372;2023-02-28T05:31:00;12.93;53.94
64918;HTU21D;52176;44.858;38.372;2023-02-28T05:33:26;13.05;53.81
64918;HTU21D;52176;44.858;38.372;2023-02-28T05:35:52;13.14;53.63
64918;HTU21D;52176;44.858;38.372;2023-02-28T05:38:18;13.22;53.49
64918;HTU21D;52176;44.858;38.372;2023-02-28T05:40:44;13.31;53.32
64918;HTU21D;52176;44.858;38.372;2023-02-28T05:43:10;13.40;53.11
64918;HTU21D;52176;44.858;38.372;2023-02-28T05:45:37;13.53;52.88
64918;HTU21D;52176;44.858;38.372;2023-02-28T05:48:02;13.69;52.59
64918;HTU21D;52176;44.858;38.372;2023-02-28T05:50:28;13.84;52.38
64918;HTU21D;52176;44.858;38.372;2023-02-28T05:52:54;14.03;52.12
64918;HTU21D;52176;44.858;38.372;2023-02-28T05:55:20;14.22;51.89
64918;HTU21D;52176;44.858;38.372;2023-02-28T05:57:46;14.40;51.58
64918;HTU21D;52176;44.858;38.372;2023-02-28T06:00:12;14.56;51.30
64918;HTU21D;52176;44.858;38.372;2023-02-28T06:02:40;14.75;51.11
64918;HTU21D;52176;44.858;38.372;2023-02-28T06:05:09;14.89;50.87
64918;HTU21D;52176;44.858;38.372;2023-02-28T06:07:38;15.03;50.85
64918;HTU21D;52176;44.858;38.372;2023-02-28T06:10:04;15.16;51.05
64918;HTU21D;52176;44.858;38.372;2023-02-28T06:12:29;15.26;51.19
64918;HTU21D;52176;44.858;38.372;2023-02-28T06:14:55;15.32;51.30
64918;HTU21D;52176;44.858;38.372;2023-02-28T06:17:21;15.43;51.41
64918;HTU21D;52176;44.858;38.372;2023-02-28T06:19:47;15.54;51.12
64918;HTU21D;52176;44.858;38.372;2023-02-28T06:22:13;15.67;50.82
64918;HTU21D;52176;44.858;38.372;2023-02-28T06:24:39;15.73;50.68
64918;HTU21D;52176;44.858;38.372;2023-02-28T06:27:05;15.78;50.78
64918;HTU21D;52176;44.858;38.372;2023-02-28T06:29:31;15.81;50.90
64918;HTU21D;52176;44.858;38.372;2023-02-28T06:31:57;15.83;50.84
64918;HTU21D;52176;44.858;38.372;2023-02-28T06:34:23;15.84;50.83
64918;HTU21D;52176;44.858;38.372;2023-02-28T06:36:50;15.85;50.82
64918;HTU21D;52176;44.858;38.372;2023-02-28T06:39:16;15.81;50.88
64918;HTU21D;52176;44.858;38.372;2023-02-28T06:41:42;15.75;50.94
64918;HTU21D;52176;44.858;38.372;2023-02-28T06:44:11;15.67;51.09
64918;HTU21D;52176;44.858;38.372;2023-02-28T06:46:39;15.63;51.31
64918;HTU21D;52176;44.858;38.372;2023-02-28T06:49:05;15.69;51.34
64918;HTU21D;52176;44.858;38.372;2023-02-28T06:51:34;15.78;51.24
64918;HTU21D;52176;44.858;38.372;2023-02-28T06:54:00;15.81;51.10
64918;HTU21D;52176;44.858;38.372;2023-02-28T06:56:26;15.76;51.16
64918;HTU21D;52176;44.858;38.372;2023-02-28T06:58:52;15.76;51.38
64918;HTU21D;52176;44.858;38.372;2023-02-28T07:01:18;15.78;51.56
64918;HTU21D;52176;44.858;38.372;2023-02-28T07:03:44;15.81;51.54
64918;HTU21D;52176;44.858;38.372;2023-02-28T07:06:10;15.75;51.55
64918;HTU21D;52176;44.858;38.372;2023-02-28T07:08:36;15.74;51.69
64918;HTU21D;52176;44.858;38.372;2023-02-28T07:11:03;15.75;51.72
64918;HTU21D;52176;44.858;38.372;2023-02-28T07:13:29;15.75;51.74
64918;HTU21D;52176;44.858;38.372;2023-02-28T07:15:58;15.72;51.66
64918;HTU21D;52176;44.858;38.372;2023-02-28T07:18:25;15.69;51.69
64918;HTU21D;52176;44.858;38.372;2023-02-28T07:20:51;15.71;51.84
64918;HTU21D;52176;44.858;38.372;2023-02-28T07:23:17;15.78;51.76
64918;HTU21D;52176;44.858;38.372;2023-02-28T07:25:43;15.83;51.66
64918;HTU21D;52176;44.858;38.372;2023-02-28T07:28:09;15.87;51.67
64918;HTU21D;52176;44.858;38.372;2023-02-28T07:30:35;15.93;51.58
64918;HTU21D;52176;44.858;38.372;2023-02-28T07:33:00;16.01;51.53
64918;HTU21D;52176;44.858;38.372;2023-02-28T07:35:26;16.15;51.56
64918;HTU21D;52176;44.858;38.372;2023-02-28T07:37:52;16.32;51.45
64918;HTU21D;52176;44.858;38.372;2023-02-28T07:40:18;16.42;51.21
64918;HTU21D;52176;44.858;38.372;2023-02-28T07:42:44;16.45;51.19
64918;HTU21D;52176;44.858;38.372;2023-02-28T07:45:12;16.46;51.14
64918;HTU21D;52176;44.858;38.372;2023-02-28T07:47:38;16.50;51.03
64918;HTU21D;52176;44.858;38.372;2023-02-28T07:50:05;16.50;51.08
64918;HTU21D;52176;44.858;38.372;2023-02-28T07:52:30;16.52;51.12
64918;HTU21D;52176;44.858;38.372;2023-02-28T07:54:57;16.74;51.14
64918;HTU21D;52176;44.858;38.372;2023-02-28T07:57:23;17.13;50.82
64918;HTU21D;52176;44.858;38.372;2023-02-28T07:59:49;17.35;50.33
64918;HTU21D;52176;44.858;38.372;2023-02-28T08:02:15;17.62;50.21
64918;HTU21D;52176;44.858;38.372;2023-02-28T08:04:41;17.83;49.86
64918;HTU21D;52176;44.858;38.372;2023-02-28T08:07:07;17.84;49.69
64918;HTU21D;52176;44.858;38.372;2023-02-28T08:09:33;17.69;50.06
64918;HTU21D;52176;44.858;38.372;2023-02-28T08:11:59;17.58;50.53
64918;HTU21D;52176;44.858;38.372;2023-02-28T08:14:25;17.52;50.96
64918;HTU21D;52176;44.858;38.372;2023-02-28T08:16:51;17.48;51.53
64918;HTU21D;52176;44.858;38.372;2023-02-28T08:19:17;17.45;52.07
64918;HTU21D;52176;44.858;38.372;2023-02-28T08:21:43;17.36;52.36
64918;HTU21D;52176;44.858;38.372;2023-02-28T08:24:08;17.26;52.72
64918;HTU21D;52176;44.858;38.372;2023-02-28T08:26:34;17.13;53.13
64918;HTU21D;52176;44.858;38.372;2023-02-28T08:29:00;17.07;53.46
64918;HTU21D;52176;44.858;38.372;2023-02-28T08:31:26;16.96;53.47
64918;HTU21D;52176;44.858;38.372;2023-02-28T08:33:52;16.81;53.68
64918;HTU21D;52176;44.858;38.372;2023-02-28T08:36:19;16.79;54.00
64918;HTU21D;52176;44.858;38.372;2023-02-28T08:38:45;16.92;54.02
64918;HTU21D;52176;44.858;38.372;2023-02-28T08:41:11;16.95;53.99
64918;HTU21D;52176;44.858;38.372;2023-02-28T08:43:38;16.95;54.10
64918;HTU21D;52176;44.858;38.372;2023-02-28T08:46:04;16.92;54.07
64918;HTU21D;52176;44.858;38.372;2023-02-28T08:48:32;16.86;54.17
64918;HTU21D;52176;44.858;38.372;2023-02-28T08:51:03;16.79;54.30
64918;HTU21D;52176;44.858;38.372;2023-02-28T08:53:29;16.76;54.39
64918;HTU21D;52176;44.858;38.372;2023-02-28T08:56:05;16.74;54.42
64918;HTU21D;52176;44.858;38.372;2023-02-28T08:58:31;16.74;54.46
64918;HTU21D;52176;44.858;38.372;2023-02-28T09:00:57;16.73;54.57
64918;HTU21D;52176;44.858;38.372;2023-02-28T09:03:23;16.74;54.59
64918;HTU21D;52176;44.858;38.372;2023-02-28T09:05:56;16.71;54.75
64918;HTU21D;52176;44.858;38.372;2023-02-28T09:08:22;16.72;54.78
64918;HTU21D;52176;44.858;38.372;2023-02-28T09:10:49;16.69;54.91
64918;HTU21D;52176;44.858;38.372;2023-02-28T09:13:14;16.70;55.10
64918;HTU21D;52176;44.858;38.372;2023-02-28T09:15:40;16.71;55.10
64918;HTU21D;52176;44.858;38.372;2023-02-28T09:18:06;16.67;55.16
64918;HTU21D;52176;44.858;38.372;2023-02-28T09:20:32;16.61;55.29
64918;HTU21D;52176;44.858;38.372;2023-02-28T09:22:57;16.60;55.42
64918;HTU21D;52176;44.858;38.372;2023-02-28T09:25:23;16.67;55.48
64918;HTU21D;52176;44.858;38.372;2023-02-28T09:27:49;16.72;55.47
64918;HTU21D;52176;44.858;38.372;2023-02-28T09:30:15;16.71;55.55
64918;HTU21D;52176;44.858;38.372;2023-02-28T09:32:41;16.69;55.62
64918;HTU21D;52176;44.858;38.372;2023-02-28T09:35:07;16.70;55.74
64918;HTU21D;52176;44.858;38.372;2023-02-28T09:37:38;16.73;55.74
64918;HTU21D;52176;44.858;38.372;2023-02-28T09:40:04;16.76;55.78
64918;HTU21D;52176;44.858;38.372;2023-02-28T09:42:32;16.81;55.78
64918;HTU21D;52176;44.858;38.372;2023-02-28T09:45:02;17.05;55.69
64918;HTU21D;52176;44.858;38.372;2023-02-28T09:49:59;17.87;54.58
64918;HTU21D;52176;44.858;38.372;2023-02-28T09:52:29;18.11;54.14
64918;HTU21D;52176;44.858;38.372;2023-02-28T09:54:56;18.18;53.99
64918;HTU21D;52176;44.858;38.372;2023-02-28T10:00:05;18.29;54.06
64918;HTU21D;52176;44.858;38.372;2023-02-28T10:11:03;19.44;52.25
64918;HTU21D;52176;44.858;38.372;2023-02-28T10:13:52;19.54;52.17
64918;HTU21D;52176;44.858;38.372;2023-02-28T10:15:59;19.70;52.00
64918;HTU21D;52176;44.858;38.372;2023-02-28T10:18:28;19.94;51.74
64918;HTU21D;52176;44.858;38.372;2023-02-28T10:20:56;20.07;51.37
64918;HTU21D;52176;44.858;38.372;2023-02-28T10:23:26;20.06;51.31
64918;HTU21D;52176;44.858;38.372;2023-02-28T10:26:03;19.88;51.27
64918;HTU21D;52176;44.858;38.372;2023-02-28T10:28:29;19.77;51.64
64918;HTU21D;52176;44.858;38.372;2023-02-28T10:30:56;19.79;51.55
64918;HTU21D;52176;44.858;38.372;2023-02-28T10:35:51;19.59;51.86
64918;HTU21D;52176;44.858;38.372;2023-02-28T10:38:19;19.46;51.91
64918;HTU21D;52176;44.858;38.372;2023-02-28T10:40:45;19.35;52.16
64918;HTU21D;52176;44.858;38.372;2023-02-28T10:45:40;18.94;52.69
64918;HTU21D;52176;44.858;38.372;2023-02-28T11:00:58;18.39;53.90
64918;HTU21D;52176;44.858;38.372;2023-02-28T11:03:25;18.25;54.18
64918;HTU21D;52176;44.858;38.372;2023-02-28T11:05:54;18.12;54.39
64918;HTU21D;52176;44.858;38.372;2023-02-28T11:08:20;17.98;54.61
64918;HTU21D;52176;44.858;38.372;2023-02-28T11:10:47;17.92;54.84
64918;HTU21D;52176;44.858;38.372;2023-02-28T11:13:19;17.91;54.90
64918;HTU21D;52176;44.858;38.372;2023-02-28T11:15:50;17.98;54.87
64918;HTU21D;52176;44.858;38.372;2023-02-28T11:20:49;18.28;54.46
64918;HTU21D;52176;44.858;38.372;2023-02-28T11:23:16;18.28;54.39
64918;HTU21D;52176;44.858;38.372;2023-02-28T11:25:46;18.17;54.53
64918;HTU21D;52176;44.858;38.372;2023-02-28T11:33:50;17.76;55.24
64918;HTU21D;52176;44.858;38.372;2023-02-28T11:36:18;17.65;55.65
64918;HTU21D;52176;44.858;38.372;2023-02-28T11:38:44;17.55;55.97
64918;HTU21D;52176;44.858;38.372;2023-02-28T11:57:16;16.79;57.26
64918;HTU21D;52176;44.858;38.372;2023-02-28T12:02:21;16.58;57.67
64918;HTU21D;52176;44.858;38.372;2023-02-28T12:07:47;16.20;58.22
64918;HTU21D;52176;44.858;38.372;2023-02-28T12:10:19;15.95;58.55
64918;HTU21D;52176;44.858;38.372;2023-02-28T12:20:34;15.45;59.64
64918;HTU21D;52176;44.858;38.372;2023-02-28T12:28:11;15.75;59.57
64918;HTU21D;52176;44.858;38.372;2023-02-28T12:30:38;15.88;59.29
64918;HTU21D;52176;44.858;38.372;2023-02-28T12:33:11;15.91;59.19
64918;HTU21D;52176;44.858;38.372;2023-02-28T12:35:43;15.84;59.26
64918;HTU21D;52176;44.858;38.372;2023-02-28T12:40:44;15.57;59.54
64918;HTU21D;52176;44.858;38.372;2023-02-28T12:43:12;15.40;59.67
64918;HTU21D;52176;44.858;38.372;2023-02-28T12:45:40;15.24;59.91
64918;HTU21D;52176;44.858;38.372;2023-02-28T12:48:08;15.12;60.15
64918;HTU21D;52176;44.858;38.372;2023-02-28T12:50:36;15.03;60.36
64918;HTU21D;52176;44.858;38.372;2023-02-28T13:17:09;14.24;61.57
64918;HTU21D;52176;44.858;38.372;2023-02-28T13:19:32;14.12;61.59
64918;HTU21D;52176;44.858;38.372;2023-02-28T13:21:58;14.01;61.75
64918;HTU21D;52176;44.858;38.372;2023-02-28T13:24:44;13.97;61.88
64918;HTU21D;52176;44.858;38.372;2023-02-28T13:27:19;13.90;61.93
64918;HTU21D;52176;44.858;38.372;2023-02-28T13:29:50;13.77;62.07
64918;HTU21D;52176;44.858;38.372;2023-02-28T13:39:47;13.22;62.69
64918;HTU21D;52176;44.858;38.372;2023-02-28T13:42:31;13.09;62.96
64918;HTU21D;52176;44.858;38.372;2023-02-28T13:55:38;12.16;64.05
64918;HTU21D;52176;44.858;38.372;2023-02-28T14:05:47;11.57;64.95
64918;HTU21D;52176;44.858;38.372;2023-02-28T14:08:16;11.42;65.16
64918;HTU21D;52176;44.858;38.372;2023-02-28T14:10:44;11.27;65.40
64918;HTU21D;52176;44.858;38.372;2023-02-28T14:18:32;10.85;66.16
64918;HTU21D;52176;44.858;38.372;2023-02-28T14:21:16;10.74;66.37
64918;HTU21D;52176;44.858;38.372;2023-02-28T14:37:42;9.91;67.49
64918;HTU21D;52176;44.858;38.372;2023-02-28T14:40:12;9.78;67.54
64918;HTU21D;52176;44.858;38.372;2023-02-28T14:42:39;9.65;67.85
64918;HTU21D;52176;44.858;38.372;2023-02-28T14:45:19;9.52;67.94
64918;HTU21D;52176;44.858;38.372;2023-02-28T14:47:45;9.40;68.20
64918;HTU21D;52176;44.858;38.372;2023-02-28T14:50:22;9.29;68.30
64918;HTU21D;52176;44.858;38.372;2023-02-28T14:52:51;9.17;68.59
64918;HTU21D;52176;44.858;38.372;2023-02-28T14:55:18;9.06;68.70
64918;HTU21D;52176;44.858;38.372;2023-02-28T14:57:52;8.94;68.99
64918;HTU21D;52176;44.858;38.372;2023-02-28T15:00:24;8.85;68.96
64918;HTU21D;52176;44.858;38.372;2023-02-28T15:02:50;8.75;69.24
64918;HTU21D;52176;44.858;38.372;2023-02-28T15:05:23;8.65;69.43
64918;HTU21D;52176;44.858;38.372;2023-02-28T15:08:00;8.56;69.55
64918;HTU21D;52176;44.858;38.372;2023-02-28T15:10:26;8.48;69.65
64918;HTU21D;52176;44.858;38.372;2023-02-28T15:12:59;8.41;69.92
64918;HTU21D;52176;44.858;38.372;2023-02-28T15:15:39;8.31;70.24
64918;HTU21D;52176;44.858;38.372;2023-02-28T15:20:46;8.13;70.39
64918;HTU21D;52176;44.858;38.372;2023-02-28T15:23:13;8.04;70.64
64918;HTU21D;52176;44.858;38.372;2023-02-28T15:25:40;7.94;70.81
64918;HTU21D;52176;44.858;38.372;2023-02-28T15:28:13;7.85;70.86
64918;HTU21D;52176;44.858;38.372;2023-02-28T15:30:55;7.75;71.19
64918;HTU21D;52176;44.858;38.372;2023-02-28T15:33:24;7.67;71.08
64918;HTU21D;52176;44.858;38.372;2023-02-28T15:35:51;7.59;71.12
64918;HTU21D;52176;44.858;38.372;2023-02-28T15:38:18;7.54;71.37
64918;HTU21D;52176;44.858;38.372;2023-02-28T15:40:55;7.48;71.45
64918;HTU21D;52176;44.858;38.372;2023-02-28T15:46:03;7.41;71.58
64918;HTU21D;52176;44.858;38.372;2023-02-28T15:48:34;7.35;71.93
64918;HTU21D;52176;44.858;38.372;2023-02-28T15:51:08;7.33;71.78
64918;HTU21D;52176;44.858;38.372;2023-02-28T15:56:43;7.24;72.17
64918;HTU21D;52176;44.858;38.372;2023-02-28T15:59:16;7.17;72.17
64918;HTU21D;52176;44.858;38.372;2023-02-28T16:01:43;7.11;72.25
64918;HTU21D;52176;44.858;38.372;2023-02-28T16:04:17;7.07;72.12
64918;HTU21D;52176;44.858;38.372;2023-02-28T16:07:01;6.99;72.32
64918;HTU21D;52176;44.858;38.372;2023-02-28T16:09:27;6.93;72.29
64918;HTU21D;52176;44.858;38.372;2023-02-28T16:12:00;6.85;72.45
64918;HTU21D;52176;44.858;38.372;2023-02-28T16:14:29;6.79;72.57
64918;HTU21D;52176;44.858;38.372;2023-02-28T16:17:03;6.74;72.73
64918;HTU21D;52176;44.858;38.372;2023-02-28T16:19:29;6.70;72.66
64918;HTU21D;52176;44.858;38.372;2023-02-28T16:21:57;6.68;72.68
64918;HTU21D;52176;44.858;38.372;2023-02-28T16:24:23;6.63;72.79
64918;HTU21D;52176;44.858;38.372;2023-02-28T16:26:50;6.56;73.09
64918;HTU21D;52176;44.858;38.372;2023-02-28T16:29:27;6.51;72.90
64918;HTU21D;52176;44.858;38.372;2023-02-28T16:31:54;6.45;73.22
64918;HTU21D;52176;44.858;38.372;2023-02-28T16:34:21;6.39;73.07
64918;HTU21D;52176;44.858;38.372;2023-02-28T16:36:49;6.35;73.19
64918;HTU21D;52176;44.858;38.372;2023-02-28T16:39:15;6.33;73.12
64918;HTU21D;52176;44.858;38.372;2023-02-28T16:41:43;6.31;73.26
64918;HTU21D;52176;44.858;38.372;2023-02-28T16:44:14;6.27;73.30
64918;HTU21D;52176;44.858;38.372;2023-02-28T16:46:46;6.24;73.22
64918;HTU21D;52176;44.858;38.372;2023-02-28T16:49:12;6.20;73.22
64918;HTU21D;52176;44.858;38.372;2023-02-28T16:51:38;6.15;73.44
64918;HTU21D;52176;44.858;38.372;2023-02-28T16:54:04;6.13;73.35
64918;HTU21D;52176;44.858;38.372;2023-02-28T16:56:31;6.10;73.37
64918;HTU21D;52176;44.858;38.372;2023-02-28T16:59:00;6.08;73.39
64918;HTU21D;52176;44.858;38.372;2023-02-28T17:01:26;6.05;73.46
64918;HTU21D;52176;44.858;38.372;2023-02-28T17:03:53;6.02;73.47
64918;HTU21D;52176;44.858;38.372;2023-02-28T17:06:22;5.99;73.59
64918;HTU21D;52176;44.858;38.372;2023-02-28T17:08:49;5.96;73.55
64918;HTU21D;52176;44.858;38.372;2023-02-28T17:11:15;5.93;73.67
64918;HTU21D;52176;44.858;38.372;2023-02-28T17:13:41;5.92;73.72
64918;HTU21D;52176;44.858;38.372;2023-02-28T17:16:41;5.90;73.64
64918;HTU21D;52176;44.858;38.372;2023-02-28T17:19:03;5.87;73.57
64918;HTU21D;52176;44.858;38.372;2023-02-28T17:21:30;5.86;73.58
64918;HTU21D;52176;44.858;38.372;2023-02-28T17:23:56;5.85;73.52
64918;HTU21D;52176;44.858;38.372;2023-02-28T17:26:22;5.84;73.62
64918;HTU21D;52176;44.858;38.372;2023-02-28T17:28:50;5.84;73.63
64918;HTU21D;52176;44.858;38.372;2023-02-28T17:31:17;5.83;73.77
64918;HTU21D;52176;44.858;38.372;2023-02-28T17:33:43;5.80;73.76
64918;HTU21D;52176;44.858;38.372;2023-02-28T17:36:15;5.79;73.95
64918;HTU21D;52176;44.858;38.372;2023-02-28T17:38:41;5.76;74.09
64918;HTU21D;52176;44.858;38.372;2023-02-28T17:41:10;5.71;74.12
64918;HTU21D;52176;44.858;38.372;2023-02-28T17:43:36;5.67;74.25
64918;HTU21D;52176;44.858;38.372;2023-02-28T17:46:02;5.64;74.28
64918;HTU21D;52176;44.858;38.372;2023-02-28T17:48:30;5.62;74.31
64918;HTU21D;52176;44.858;38.372;2023-02-28T17:50:56;5.56;74.51
64918;HTU21D;52176;44.858;38.372;2023-02-28T17:53:22;5.53;74.54
64918;HTU21D;52176;44.858;38.372;2023-02-28T17:55:49;5.52;74.41
64918;HTU21D;52176;44.858;38.372;2023-02-28T17:58:15;5.49;74.55
64918;HTU21D;52176;44.858;38.372;2023-02-28T18:00:41;5.47;74.53
64918;HTU21D;52176;44.858;38.372;2023-02-28T18:03:07;5.43;74.53
64918;HTU21D;52176;44.858;38.372;2023-02-28T18:05:33;5.41;74.59
64918;HTU21D;52176;44.858;38.372;2023-02-28T18:07:59;5.41;74.57
64918;HTU21D;52176;44.858;38.372;2023-02-28T18:10:25;5.41;74.57
64918;HTU21D;52176;44.858;38.372;2023-02-28T18:12:53;5.40;74.64